sensor_id;sensor_type;location;lat;lon;timestamp;temperature;humidity
26521;DHT22;14192;0.00000000;0.00000000;2023-04-01T00:01:24;9.70;99.90
26521;DHT22;14192;0.00000000;0.00000000;2023-04-01T00:03:51;9.60;99.90
26521;DHT22;14192;0.00000000;0.00000000;2023-04-01T00:06:19;12.40;99.90
26521;DHT22;14192;0.00000000;0.00000000;2023-04-01T00:08:46;9.50;99.90
26521;DHT22;14192;0.00000000;0.00000000;2023-04-01T00:11:13;9.50;99.90
26521;DHT22;14192;0.00000000;0.00000000;2023-04-01T00:13:40;9.60;99.90
26521;DHT22;14192;0.00000000;0.00000000;2023-04-01T00:16:09;9.50;99.90
26521;DHT22;14192;0.00000000;0.00000000;2023-04-01T00:18:36;9.50;99.90
26521;DHT22;14192;0.00000000;0.00000000;2023-04-01T00:21:03;9.50;99.90
26521;DHT22;14192;0.00000000;0.00000000;2023-04-01T00:23:30;9.50;99.90
26521;DHT22;14192;0.00000000;0.00000000;2023-04-01T00:25:59;9.60;99.90
26521;DHT22;14192;0.00000000;0.00000000;2023-04-01T00:28:27;9.60;99.90
26521;DHT22;14192;0.00000000;0.00000000;2023-04-01T00:30:54;9.60;99.90
26521;DHT22;14192;0.00000000;0.00000000;2023-04-01T00:33:22;9.60;99.90
26521;DHT22;14192;0.00000000;0.00000000;2023-04-01T00:35:50;9.60;99.90
26521;DHT22;14192;0.00000000;0.00000000;2023-04-01T00:38:17;9.60;99.90
26521;DHT22;14192;0.00000000;0.00000000;2023-04-01T00:40:46;9.60;99.90
26521;DHT22;14192;0.00000000;0.00000000;2023-04-01T00:43:14;9.60;99.90
26521;DHT22;14192;0.00000000;0.00000000;2023-04-01T00:45:44;9.60;99.90
26521;DHT22;14192;0.00000000;0.00000000;2023-04-01T00:48:14;9.50;99.90
26521;DHT22;14192;0.00000000;0.00000000;2023-04-01T00:50:47;9.60;99.90
26521;DHT22;14192;0.00000000;0.00000000;2023-04-01T00:53:16;9.60;99.90
26521;DHT22;14192;0.00000000;0.00000000;2023-04-01T00:55:47;9.60;99.90
26521;DHT22;14192;0.00000000;0.00000000;2023-04-01T00:58:17;9.60;99.90
26521;DHT22;14192;0.00000000;0.00000000;2023-04-01T01:00:46;9.60;99.90
26521;DHT22;14192;0.00000000;0.00000000;2023-04-01T01:03:14;9.50;99.90
26521;DHT22;14192;0.00000000;0.00000000;2023-04-01T01:05:55;9.50;99.90
26521;DHT22;14192;0.00000000;0.00000000;2023-04-01T01:08:33;9.50;99.90
26521;DHT22;14192;0.00000000;0.00000000;2023-04-01T01:11:05;9.60;99.90
26521;DHT22;14192;0.00000000;0.00000000;2023-04-01T01:13:42;9.60;99.90
26521;DHT22;14192;0.00000000;0.00000000;2023-04-01T01:16:16;9.60;99.90
26521;DHT22;14192;0.00000000;0.00000000;2023-04-01T01:18:49;9.60;99.90
26521;DHT22;14192;0.00000000;0.00000000;2023-04-01T01:21:47;9.60;99.90
26521;DHT22;14192;0.00000000;0.00000000;2023-04-01T01:27:17;9.70;99.90
26521;DHT22;14192;0.00000000;0.00000000;2023-04-01T01:30:05;9.70;99.90
26521;DHT22;14192;0.00000000;0.00000000;2023-04-01T01:35:30;9.50;99.90
26521;DHT22;14192;0.00000000;0.00000000;2023-04-01T01:38:00;9.50;99.90
26521;DHT22;14192;0.00000000;0.00000000;2023-04-01T01:40:28;9.50;99.90
26521;DHT22;14192;0.00000000;0.00000000;2023-04-01T01:42:59;9.50;99.90
26521;DHT22;14192;0.00000000;0.00000000;2023-04-01T01:45:28;9.60;99.90
26521;DHT22;14192;0.00000000;0.00000000;2023-04-01T01:47:57;9.50;99.90
26521;DHT22;14192;0.00000000;0.00000000;2023-04-01T01:50:25;9.40;99.90
26521;DHT22;14192;0.00000000;0.00000000;2023-04-01T01:53:02;9.40;99.90
26521;DHT22;14192;0.00000000;0.00000000;2023-04-01T01:55:31;9.40;99.90
26521;DHT22;14192;0.00000000;0.00000000;2023-04-01T01:57:59;9.40;99.90
26521;DHT22;14192;0.00000000;0.00000000;2023-04-01T02:00:28;9.40;99.90
26521;DHT22;14192;0.00000000;0.00000000;2023-04-01T02:02:56;9.40;99.90
26521;DHT22;14192;0.00000000;0.00000000;2023-04-01T02:05:25;9.40;99.90
26521;DHT22;14192;0.00000000;0.00000000;2023-04-01T02:08:01;9.40;99.90
26521;DHT22;14192;0.00000000;0.00000000;2023-04-01T02:10:31;9.30;99.90
26521;DHT22;14192;0.00000000;0.00000000;2023-04-01T02:13:02;9.30;99.90
26521;DHT22;14192;0.00000000;0.00000000;2023-04-01T02:15:33;9.30;99.90
26521;DHT22;14192;0.00000000;0.00000000;2023-04-01T02:18:04;9.20;99.90
26521;DHT22;14192;0.00000000;0.00000000;2023-04-01T02:20:31;9.20;99.90
26521;DHT22;14192;0.00000000;0.00000000;2023-04-01T02:23:00;9.20;99.90
26521;DHT22;14192;0.00000000;0.00000000;2023-04-01T02:25:30;9.20;99.90
26521;DHT22;14192;0.00000000;0.00000000;2023-04-01T02:27:58;9.10;99.90
26521;DHT22;14192;0.00000000;0.00000000;2023-04-01T02:30:27;9.20;99.90
26521;DHT22;14192;0.00000000;0.00000000;2023-04-01T02:32:57;9.10;99.90
26521;DHT22;14192;0.00000000;0.00000000;2023-04-01T02:35:25;9.00;99.90
26521;DHT22;14192;0.00000000;0.00000000;2023-04-01T02:37:55;9.10;99.90
26521;DHT22;14192;0.00000000;0.00000000;2023-04-01T02:40:23;9.10;99.90
26521;DHT22;14192;0.00000000;0.00000000;2023-04-01T02:45:17;9.10;99.90
26521;DHT22;14192;0.00000000;0.00000000;2023-04-01T02:47:44;9.10;99.90
26521;DHT22;14192;0.00000000;0.00000000;2023-04-01T02:50:11;9.20;99.90
26521;DHT22;14192;0.00000000;0.00000000;2023-04-01T02:52:38;9.20;99.90
26521;DHT22;14192;0.00000000;0.00000000;2023-04-01T02:55:06;9.10;99.90
26521;DHT22;14192;0.00000000;0.00000000;2023-04-01T02:57:34;9.00;99.90
26521;DHT22;14192;0.00000000;0.00000000;2023-04-01T03:00:01;9.10;99.90
26521;DHT22;14192;0.00000000;0.00000000;2023-04-01T03:02:28;9.10;99.90
26521;DHT22;14192;0.00000000;0.00000000;2023-04-01T03:04:54;9.00;99.90
26521;DHT22;14192;0.00000000;0.00000000;2023-04-01T03:07:21;9.00;99.90
26521;DHT22;14192;0.00000000;0.00000000;2023-04-01T03:09:48;8.90;99.90
26521;DHT22;14192;0.00000000;0.00000000;2023-04-01T03:12:16;9.00;99.90
26521;DHT22;14192;0.00000000;0.00000000;2023-04-01T03:14:44;9.00;99.90
26521;DHT22;14192;0.00000000;0.00000000;2023-04-01T03:17:10;9.00;99.90
26521;DHT22;14192;0.00000000;0.00000000;2023-04-01T03:22:04;9.00;99.90
26521;DHT22;14192;0.00000000;0.00000000;2023-04-01T03:24:31;9.00;99.90
26521;DHT22;14192;0.00000000;0.00000000;2023-04-01T03:26:58;9.00;99.90
26521;DHT22;14192;0.00000000;0.00000000;2023-04-01T03:29:25;9.10;99.90
26521;DHT22;14192;0.00000000;0.00000000;2023-04-01T03:31:54;9.00;99.90
26521;DHT22;14192;0.00000000;0.00000000;2023-04-01T03:34:23;9.00;99.90
26521;DHT22;14192;0.00000000;0.00000000;2023-04-01T03:36:50;8.90;99.90
26521;DHT22;14192;0.00000000;0.00000000;2023-04-01T03:39:17;8.90;99.90
26521;DHT22;14192;0.00000000;0.00000000;2023-04-01T03:41:45;9.00;99.90
26521;DHT22;14192;0.00000000;0.00000000;2023-04-01T03:44:12;9.00;99.90
26521;DHT22;14192;0.00000000;0.00000000;2023-04-01T03:46:39;9.00;99.90
26521;DHT22;14192;0.00000000;0.00000000;2023-04-01T03:49:08;8.90;99.90
26521;DHT22;14192;0.00000000;0.00000000;2023-04-01T03:51:37;9.00;99.90
26521;DHT22;14192;0.00000000;0.00000000;2023-04-01T03:54:04;9.10;99.90
26521;DHT22;14192;0.00000000;0.00000000;2023-04-01T03:56:31;9.10;99.90
26521;DHT22;14192;0.00000000;0.00000000;2023-04-01T03:58:58;9.00;99.90
26521;DHT22;14192;0.00000000;0.00000000;2023-04-01T04:01:25;9.00;99.90
26521;DHT22;14192;0.00000000;0.00000000;2023-04-01T04:03:52;9.10;99.90
26521;DHT22;14192;0.00000000;0.00000000;2023-04-01T04:06:20;9.10;99.90
26521;DHT22;14192;0.00000000;0.00000000;2023-04-01T04:08:47;9.10;99.90
26521;DHT22;14192;0.00000000;0.00000000;2023-04-01T04:11:14;9.00;99.90
26521;DHT22;14192;0.00000000;0.00000000;2023-04-01T04:13:41;9.00;99.90
26521;DHT22;14192;0.00000000;0.00000000;2023-04-01T04:16:08;9.00;99.90
26521;DHT22;14192;0.00000000;0.00000000;2023-04-01T04:18:35;9.00;99.90
26521;DHT22;14192;0.00000000;0.00000000;2023-04-01T04:21:03;9.00;99.90
26521;DHT22;14192;0.00000000;0.00000000;2023-04-01T04:23:32;9.00;99.90
26521;DHT22;14192;0.00000000;0.00000000;2023-04-01T04:26:00;9.00;99.90
26521;DHT22;14192;0.00000000;0.00000000;2023-04-01T04:28:28;9.00;99.90
26521;DHT22;14192;0.00000000;0.00000000;2023-04-01T04:30:55;9.00;99.90
26521;DHT22;14192;0.00000000;0.00000000;2023-04-01T04:33:22;9.10;99.90
26521;DHT22;14192;0.00000000;0.00000000;2023-04-01T04:35:50;9.10;99.90
26521;DHT22;14192;0.00000000;0.00000000;2023-04-01T04:38:17;9.10;99.90
26521;DHT22;14192;0.00000000;0.00000000;2023-04-01T04:40:45;9.00;99.90
26521;DHT22;14192;0.00000000;0.00000000;2023-04-01T04:43:14;9.10;99.90
26521;DHT22;14192;0.00000000;0.00000000;2023-04-01T04:45:41;8.90;99.90
26521;DHT22;14192;0.00000000;0.00000000;2023-04-01T04:48:08;9.10;99.90
26521;DHT22;14192;0.00000000;0.00000000;2023-04-01T04:50:35;9.00;99.90
26521;DHT22;14192;0.00000000;0.00000000;2023-04-01T04:53:02;9.00;99.90
26521;DHT22;14192;0.00000000;0.00000000;2023-04-01T04:55:29;9.10;99.90
26521;DHT22;14192;0.00000000;0.00000000;2023-04-01T04:57:57;9.10;99.90
26521;DHT22;14192;0.00000000;0.00000000;2023-04-01T05:00:24;9.10;99.90
26521;DHT22;14192;0.00000000;0.00000000;2023-04-01T05:02:51;9.00;99.90
26521;DHT22;14192;0.00000000;0.00000000;2023-04-01T05:05:18;9.00;99.90
26521;DHT22;14192;0.00000000;0.00000000;2023-04-01T05:07:45;9.00;99.90
26521;DHT22;14192;0.00000000;0.00000000;2023-04-01T05:10:12;9.00;99.90
26521;DHT22;14192;0.00000000;0.00000000;2023-04-01T05:12:38;9.10;99.90
26521;DHT22;14192;0.00000000;0.00000000;2023-04-01T05:15:08;9.20;99.90
26521;DHT22;14192;0.00000000;0.00000000;2023-04-01T05:17:35;9.00;99.90
26521;DHT22;14192;0.00000000;0.00000000;2023-04-01T05:20:02;9.10;99.90
26521;DHT22;14192;0.00000000;0.00000000;2023-04-01T05:22:29;9.00;99.90
26521;DHT22;14192;0.00000000;0.00000000;2023-04-01T05:24:55;8.90;99.90
26521;DHT22;14192;0.00000000;0.00000000;2023-04-01T05:27:22;9.00;99.90
26521;DHT22;14192;0.00000000;0.00000000;2023-04-01T05:29:49;9.00;99.90
26521;DHT22;14192;0.00000000;0.00000000;2023-04-01T05:32:17;9.00;99.90
26521;DHT22;14192;0.00000000;0.00000000;2023-04-01T05:34:44;9.00;99.90
26521;DHT22;14192;0.00000000;0.00000000;2023-04-01T05:39:39;9.00;99.90
26521;DHT22;14192;0.00000000;0.00000000;2023-04-01T05:42:06;9.10;99.90
26521;DHT22;14192;0.00000000;0.00000000;2023-04-01T05:49:42;9.00;99.90
26521;DHT22;14192;0.00000000;0.00000000;2023-04-01T05:52:10;9.00;99.90
26521;DHT22;14192;0.00000000;0.00000000;2023-04-01T05:54:36;9.10;99.90
26521;DHT22;14192;0.00000000;0.00000000;2023-04-01T05:57:03;9.10;99.90
26521;DHT22;14192;0.00000000;0.00000000;2023-04-01T05:59:30;9.10;99.90
26521;DHT22;14192;0.00000000;0.00000000;2023-04-01T06:01:57;9.00;99.90
26521;DHT22;14192;0.00000000;0.00000000;2023-04-01T06:04:24;9.00;99.90
26521;DHT22;14192;0.00000000;0.00000000;2023-04-01T06:06:53;9.00;99.90
26521;DHT22;14192;0.00000000;0.00000000;2023-04-01T06:09:24;9.10;99.90
26521;DHT22;14192;0.00000000;0.00000000;2023-04-01T06:12:19;9.10;99.90
26521;DHT22;14192;0.00000000;0.00000000;2023-04-01T06:14:51;9.10;99.90
26521;DHT22;14192;0.00000000;0.00000000;2023-04-01T06:17:41;9.00;99.90
26521;DHT22;14192;0.00000000;0.00000000;2023-04-01T06:20:16;9.20;99.90
26521;DHT22;14192;0.00000000;0.00000000;2023-04-01T06:23:12;9.00;99.90
26521;DHT22;14192;0.00000000;0.00000000;2023-04-01T06:25:58;9.10;99.90
26521;DHT22;14192;0.00000000;0.00000000;2023-04-01T06:29:08;9.10;99.90
26521;DHT22;14192;0.00000000;0.00000000;2023-04-01T06:31:51;9.00;99.90
26521;DHT22;14192;0.00000000;0.00000000;2023-04-01T06:34:44;9.30;99.90
26521;DHT22;14192;0.00000000;0.00000000;2023-04-01T06:37:23;9.10;99.90
26521;DHT22;14192;0.00000000;0.00000000;2023-04-01T06:40:32;9.00;99.90
26521;DHT22;14192;0.00000000;0.00000000;2023-04-01T06:43:10;9.10;99.90
26521;DHT22;14192;0.00000000;0.00000000;2023-04-01T06:45:46;9.00;99.90
26521;DHT22;14192;0.00000000;0.00000000;2023-04-01T06:48:32;9.00;99.90
26521;DHT22;14192;0.00000000;0.00000000;2023-04-01T06:51:09;9.10;99.90
26521;DHT22;14192;0.00000000;0.00000000;2023-04-01T06:53:42;9.10;99.90
26521;DHT22;14192;0.00000000;0.00000000;2023-04-01T06:56:16;9.20;99.90
26521;DHT22;14192;0.00000000;0.00000000;2023-04-01T06:58:46;9.20;99.90
26521;DHT22;14192;0.00000000;0.00000000;2023-04-01T07:01:20;9.20;99.90
26521;DHT22;14192;0.00000000;0.00000000;2023-04-01T07:03:51;9.20;99.90
26521;DHT22;14192;0.00000000;0.00000000;2023-04-01T07:06:25;9.20;99.90
26521;DHT22;14192;0.00000000;0.00000000;2023-04-01T07:08:54;9.20;99.90
26521;DHT22;14192;0.00000000;0.00000000;2023-04-01T07:11:28;9.20;99.90
26521;DHT22;14192;0.00000000;0.00000000;2023-04-01T07:13:59;9.10;99.90
26521;DHT22;14192;0.00000000;0.00000000;2023-04-01T07:16:30;9.20;99.90
26521;DHT22;14192;0.00000000;0.00000000;2023-04-01T07:19:02;9.20;99.90
26521;DHT22;14192;0.00000000;0.00000000;2023-04-01T07:21:34;9.30;99.90
26521;DHT22;14192;0.00000000;0.00000000;2023-04-01T07:24:05;9.20;99.90
26521;DHT22;14192;0.00000000;0.00000000;2023-04-01T07:26:37;9.10;99.90
26521;DHT22;14192;0.00000000;0.00000000;2023-04-01T07:29:05;9.10;99.90
26521;DHT22;14192;0.00000000;0.00000000;2023-04-01T07:31:54;9.10;99.90
26521;DHT22;14192;0.00000000;0.00000000;2023-04-01T07:34:26;9.20;99.90
26521;DHT22;14192;0.00000000;0.00000000;2023-04-01T07:36:58;9.10;99.90
26521;DHT22;14192;0.00000000;0.00000000;2023-04-01T07:39:35;9.20;99.90
26521;DHT22;14192;0.00000000;0.00000000;2023-04-01T07:42:09;9.20;99.90
26521;DHT22;14192;0.00000000;0.00000000;2023-04-01T07:44:47;9.10;99.90
26521;DHT22;14192;0.00000000;0.00000000;2023-04-01T07:47:25;9.10;99.90
26521;DHT22;14192;0.00000000;0.00000000;2023-04-01T07:50:02;9.10;99.90
26521;DHT22;14192;0.00000000;0.00000000;2023-04-01T07:52:38;9.20;99.90
26521;DHT22;14192;0.00000000;0.00000000;2023-04-01T07:55:13;9.30;99.90
26521;DHT22;14192;0.00000000;0.00000000;2023-04-01T07:57:48;9.20;99.90
26521;DHT22;14192;0.00000000;0.00000000;2023-04-01T08:00:21;9.20;99.90
26521;DHT22;14192;0.00000000;0.00000000;2023-04-01T08:03:04;9.00;99.90
26521;DHT22;14192;0.00000000;0.00000000;2023-04-01T08:05:36;9.30;99.90
26521;DHT22;14192;0.00000000;0.00000000;2023-04-01T08:08:12;9.40;99.90
26521;DHT22;14192;0.00000000;0.00000000;2023-04-01T08:10:48;9.10;99.90
26521;DHT22;14192;0.00000000;0.00000000;2023-04-01T08:13:28;9.20;99.90
26521;DHT22;14192;0.00000000;0.00000000;2023-04-01T08:16:06;9.20;99.90
26521;DHT22;14192;0.00000000;0.00000000;2023-04-01T08:18:44;9.20;99.90
26521;DHT22;14192;0.00000000;0.00000000;2023-04-01T08:21:16;9.20;99.90
26521;DHT22;14192;0.00000000;0.00000000;2023-04-01T08:23:49;9.20;99.90
26521;DHT22;14192;0.00000000;0.00000000;2023-04-01T08:26:26;9.30;99.90
26521;DHT22;14192;0.00000000;0.00000000;2023-04-01T08:29:02;9.30;99.90
26521;DHT22;14192;0.00000000;0.00000000;2023-04-01T08:31:34;9.30;99.90
26521;DHT22;14192;0.00000000;0.00000000;2023-04-01T08:34:04;9.30;99.90
26521;DHT22;14192;0.00000000;0.00000000;2023-04-01T08:36:37;9.30;99.90
26521;DHT22;14192;0.00000000;0.00000000;2023-04-01T08:39:07;9.30;99.90
26521;DHT22;14192;0.00000000;0.00000000;2023-04-01T08:42:03;9.40;99.90
26521;DHT22;14192;0.00000000;0.00000000;2023-04-01T08:48:08;9.30;99.90
26521;DHT22;14192;0.00000000;0.00000000;2023-04-01T08:53:52;9.30;99.90
26521;DHT22;14192;0.00000000;0.00000000;2023-04-01T08:56:30;9.20;99.90
26521;DHT22;14192;0.00000000;0.00000000;2023-04-01T08:59:17;9.30;99.90
26521;DHT22;14192;0.00000000;0.00000000;2023-04-01T09:02:04;9.20;99.90
26521;DHT22;14192;0.00000000;0.00000000;2023-04-01T09:05:05;9.20;99.90
26521;DHT22;14192;0.00000000;0.00000000;2023-04-01T09:07:39;9.30;99.90
26521;DHT22;14192;0.00000000;0.00000000;2023-04-01T09:10:22;9.30;99.90
26521;DHT22;14192;0.00000000;0.00000000;2023-04-01T09:13:15;9.30;99.90
26521;DHT22;14192;0.00000000;0.00000000;2023-04-01T09:16:16;9.30;99.90
26521;DHT22;14192;0.00000000;0.00000000;2023-04-01T09:19:12;9.30;99.90
26521;DHT22;14192;0.00000000;0.00000000;2023-04-01T09:22:13;9.30;99.90
26521;DHT22;14192;0.00000000;0.00000000;2023-04-01T09:25:00;9.30;99.90
26521;DHT22;14192;0.00000000;0.00000000;2023-04-01T09:27:29;9.20;99.90
26521;DHT22;14192;0.00000000;0.00000000;2023-04-01T09:33:49;9.30;99.90
26521;DHT22;14192;0.00000000;0.00000000;2023-04-01T09:36:33;9.30;99.90
26521;DHT22;14192;0.00000000;0.00000000;2023-04-01T09:39:20;9.40;99.90
26521;DHT22;14192;0.00000000;0.00000000;2023-04-01T09:42:07;9.50;99.90
26521;DHT22;14192;0.00000000;0.00000000;2023-04-01T09:44:36;9.50;99.90
26521;DHT22;14192;0.00000000;0.00000000;2023-04-01T09:47:16;9.50;99.90
26521;DHT22;14192;0.00000000;0.00000000;2023-04-01T09:50:06;9.40;99.90
26521;DHT22;14192;0.00000000;0.00000000;2023-04-01T09:52:47;9.40;99.90
26521;DHT22;14192;0.00000000;0.00000000;2023-04-01T09:55:56;9.50;99.90
26521;DHT22;14192;0.00000000;0.00000000;2023-04-01T09:59:01;9.50;99.90
26521;DHT22;14192;0.00000000;0.00000000;2023-04-01T10:01:56;9.50;99.90
26521;DHT22;14192;0.00000000;0.00000000;2023-04-01T10:07:58;9.50;99.90
26521;DHT22;14192;0.00000000;0.00000000;2023-04-01T10:11:06;9.50;99.90
26521;DHT22;14192;0.00000000;0.00000000;2023-04-01T10:17:00;9.40;99.90
26521;DHT22;14192;0.00000000;0.00000000;2023-04-01T10:23:00;9.40;99.90
26521;DHT22;14192;0.00000000;0.00000000;2023-04-01T10:25:55;9.30;99.90
26521;DHT22;14192;0.00000000;0.00000000;2023-04-01T10:28:51;9.40;99.90
26521;DHT22;14192;0.00000000;0.00000000;2023-04-01T10:38:01;9.60;99.90
26521;DHT22;14192;0.00000000;0.00000000;2023-04-01T10:44:10;9.60;99.90
26521;DHT22;14192;0.00000000;0.00000000;2023-04-01T10:47:11;9.70;99.90
26521;DHT22;14192;0.00000000;0.00000000;2023-04-01T10:50:19;9.60;99.90
26521;DHT22;14192;0.00000000;0.00000000;2023-04-01T10:53:14;9.60;99.90
26521;DHT22;14192;0.00000000;0.00000000;2023-04-01T10:59:08;9.60;99.90
26521;DHT22;14192;0.00000000;0.00000000;2023-04-01T11:02:07;9.60;99.90
26521;DHT22;14192;0.00000000;0.00000000;2023-04-01T11:05:00;9.60;99.90
26521;DHT22;14192;0.00000000;0.00000000;2023-04-01T11:08:12;9.60;99.90
26521;DHT22;14192;0.00000000;0.00000000;2023-04-01T11:11:28;9.50;99.90
26521;DHT22;14192;0.00000000;0.00000000;2023-04-01T11:20:24;9.60;99.90
26521;DHT22;14192;0.00000000;0.00000000;2023-04-01T11:23:18;9.60;99.90
26521;DHT22;14192;0.00000000;0.00000000;2023-04-01T11:26:07;9.70;99.90
26521;DHT22;14192;0.00000000;0.00000000;2023-04-01T11:31:45;9.70;99.90
26521;DHT22;14192;0.00000000;0.00000000;2023-04-01T11:34:27;9.70;99.90
26521;DHT22;14192;0.00000000;0.00000000;2023-04-01T11:37:03;9.70;99.90
26521;DHT22;14192;0.00000000;0.00000000;2023-04-01T11:39:37;9.70;99.90
26521;DHT22;14192;0.00000000;0.00000000;2023-04-01T11:42:16;9.80;99.90
26521;DHT22;14192;0.00000000;0.00000000;2023-04-01T11:44:51;9.80;99.90
26521;DHT22;14192;0.00000000;0.00000000;2023-04-01T11:47:34;9.80;99.90
26521;DHT22;14192;0.00000000;0.00000000;2023-04-01T11:50:16;9.80;99.90
26521;DHT22;14192;0.00000000;0.00000000;2023-04-01T11:53:04;9.70;99.90
26521;DHT22;14192;0.00000000;0.00000000;2023-04-01T11:55:50;9.80;99.90
26521;DHT22;14192;0.00000000;0.00000000;2023-04-01T11:58:28;9.80;99.90
26521;DHT22;14192;0.00000000;0.00000000;2023-04-01T12:01:17;9.80;99.90
26521;DHT22;14192;0.00000000;0.00000000;2023-04-01T12:04:36;9.60;99.90
26521;DHT22;14192;0.00000000;0.00000000;2023-04-01T12:07:15;9.70;99.90
26521;DHT22;14192;0.00000000;0.00000000;2023-04-01T12:09:50;9.70;99.90
26521;DHT22;14192;0.00000000;0.00000000;2023-04-01T12:12:29;9.80;99.90
26521;DHT22;14192;0.00000000;0.00000000;2023-04-01T12:15:08;9.90;99.90
26521;DHT22;14192;0.00000000;0.00000000;2023-04-01T12:17:45;9.80;99.90
26521;DHT22;14192;0.00000000;0.00000000;2023-04-01T12:20:25;9.90;99.90
26521;DHT22;14192;0.00000000;0.00000000;2023-04-01T12:23:01;9.90;99.90
26521;DHT22;14192;0.00000000;0.00000000;2023-04-01T12:25:52;10.00;99.90
26521;DHT22;14192;0.00000000;0.00000000;2023-04-01T12:28:25;9.90;99.90
26521;DHT22;14192;0.00000000;0.00000000;2023-04-01T12:31:06;9.90;99.90
26521;DHT22;14192;0.00000000;0.00000000;2023-04-01T12:33:52;9.90;99.90
26521;DHT22;14192;0.00000000;0.00000000;2023-04-01T12:36:30;10.00;99.90
26521;DHT22;14192;0.00000000;0.00000000;2023-04-01T12:39:22;9.90;99.90
26521;DHT22;14192;0.00000000;0.00000000;2023-04-01T12:42:02;10.00;99.90
26521;DHT22;14192;0.00000000;0.00000000;2023-04-01T12:44:41;10.00;99.90
26521;DHT22;14192;0.00000000;0.00000000;2023-04-01T12:47:47;10.10;99.90
26521;DHT22;14192;0.00000000;0.00000000;2023-04-01T12:50:34;10.10;99.90
26521;DHT22;14192;0.00000000;0.00000000;2023-04-01T12:56:00;10.00;99.90
26521;DHT22;14192;0.00000000;0.00000000;2023-04-01T13:01:44;10.00;99.90
26521;DHT22;14192;0.00000000;0.00000000;2023-04-01T13:04:45;10.10;99.90
26521;DHT22;14192;0.00000000;0.00000000;2023-04-01T13:07:43;10.20;99.90
26521;DHT22;14192;0.00000000;0.00000000;2023-04-01T13:10:26;10.30;99.90
26521;DHT22;14192;0.00000000;0.00000000;2023-04-01T13:13:14;10.20;99.90
26521;DHT22;14192;0.00000000;0.00000000;2023-04-01T13:15:51;10.10;99.90
26521;DHT22;14192;0.00000000;0.00000000;2023-04-01T13:18:28;10.10;99.90
26521;DHT22;14192;0.00000000;0.00000000;2023-04-01T13:21:05;10.00;99.90
26521;DHT22;14192;0.00000000;0.00000000;2023-04-01T13:23:45;10.00;99.90
26521;DHT22;14192;0.00000000;0.00000000;2023-04-01T13:26:22;10.10;99.90
26521;DHT22;14192;0.00000000;0.00000000;2023-04-01T13:28:58;10.20;99.90
26521;DHT22;14192;0.00000000;0.00000000;2023-04-01T13:31:53;10.20;99.90
26521;DHT22;14192;0.00000000;0.00000000;2023-04-01T13:34:36;10.20;99.90
26521;DHT22;14192;0.00000000;0.00000000;2023-04-01T13:37:20;10.20;99.90
26521;DHT22;14192;0.00000000;0.00000000;2023-04-01T13:40:28;10.10;99.90
26521;DHT22;14192;0.00000000;0.00000000;2023-04-01T13:43:07;10.10;99.90
26521;DHT22;14192;0.00000000;0.00000000;2023-04-01T13:45:49;10.10;99.90
26521;DHT22;14192;0.00000000;0.00000000;2023-04-01T13:48:34;10.20;99.90
26521;DHT22;14192;0.00000000;0.00000000;2023-04-01T13:57:23;10.20;99.90
26521;DHT22;14192;0.00000000;0.00000000;2023-04-01T14:00:05;10.20;99.90
26521;DHT22;14192;0.00000000;0.00000000;2023-04-01T14:02:47;10.30;99.90
26521;DHT22;14192;0.00000000;0.00000000;2023-04-01T14:05:39;10.40;99.90
26521;DHT22;14192;0.00000000;0.00000000;2023-04-01T14:08:20;10.40;99.90
26521;DHT22;14192;0.00000000;0.00000000;2023-04-01T14:10:59;10.20;99.90
26521;DHT22;14192;0.00000000;0.00000000;2023-04-01T14:13:43;10.20;99.90
26521;DHT22;14192;0.00000000;0.00000000;2023-04-01T14:19:18;10.30;99.90
26521;DHT22;14192;0.00000000;0.00000000;2023-04-01T14:21:57;10.20;99.90
26521;DHT22;14192;0.00000000;0.00000000;2023-04-01T14:27:49;10.30;99.90
26521;DHT22;14192;0.00000000;0.00000000;2023-04-01T14:33:37;10.10;99.90
26521;DHT22;14192;0.00000000;0.00000000;2023-04-01T14:36:32;10.10;99.90
26521;DHT22;14192;0.00000000;0.00000000;2023-04-01T14:39:24;10.10;99.90
26521;DHT22;14192;0.00000000;0.00000000;2023-04-01T14:42:13;10.10;99.90
26521;DHT22;14192;0.00000000;0.00000000;2023-04-01T14:47:52;10.10;99.90
26521;DHT22;14192;0.00000000;0.00000000;2023-04-01T14:50:22;10.00;99.90
26521;DHT22;14192;0.00000000;0.00000000;2023-04-01T14:52:59;10.20;99.90
26521;DHT22;14192;0.00000000;0.00000000;2023-04-01T14:55:49;10.20;99.90
26521;DHT22;14192;0.00000000;0.00000000;2023-04-01T14:58:22;10.30;99.90
26521;DHT22;14192;0.00000000;0.00000000;2023-04-01T15:01:00;10.40;99.90
26521;DHT22;14192;0.00000000;0.00000000;2023-04-01T15:03:40;10.30;99.90
26521;DHT22;14192;0.00000000;0.00000000;2023-04-01T15:06:47;10.20;99.90
26521;DHT22;14192;0.00000000;0.00000000;2023-04-01T15:09:22;10.30;99.90
26521;DHT22;14192;0.00000000;0.00000000;2023-04-01T15:12:03;10.30;99.90
26521;DHT22;14192;0.00000000;0.00000000;2023-04-01T15:17:44;10.20;99.90
26521;DHT22;14192;0.00000000;0.00000000;2023-04-01T15:23:17;10.40;99.90
26521;DHT22;14192;0.00000000;0.00000000;2023-04-01T15:25:58;10.30;99.90
26521;DHT22;14192;0.00000000;0.00000000;2023-04-01T15:28:36;10.30;99.90
26521;DHT22;14192;0.00000000;0.00000000;2023-04-01T15:31:11;10.30;99.90
26521;DHT22;14192;0.00000000;0.00000000;2023-04-01T15:33:52;10.20;99.90
26521;DHT22;14192;0.00000000;0.00000000;2023-04-01T15:36:30;10.20;99.90
26521;DHT22;14192;0.00000000;0.00000000;2023-04-01T15:39:11;10.20;99.90
26521;DHT22;14192;0.00000000;0.00000000;2023-04-01T15:41:46;10.20;99.90
26521;DHT22;14192;0.00000000;0.00000000;2023-04-01T15:44:44;10.10;99.90
26521;DHT22;14192;0.00000000;0.00000000;2023-04-01T15:47:32;10.20;99.90
26521;DHT22;14192;0.00000000;0.00000000;2023-04-01T15:50:32;10.20;99.90
26521;DHT22;14192;0.00000000;0.00000000;2023-04-01T15:53:15;10.10;99.90
26521;DHT22;14192;0.00000000;0.00000000;2023-04-01T15:55:49;10.10;99.90
26521;DHT22;14192;0.00000000;0.00000000;2023-04-01T15:58:41;10.10;99.90
26521;DHT22;14192;0.00000000;0.00000000;2023-04-01T16:01:22;10.00;99.90
26521;DHT22;14192;0.00000000;0.00000000;2023-04-01T16:03:55;10.20;99.90
26521;DHT22;14192;0.00000000;0.00000000;2023-04-01T16:06:46;10.00;99.90
26521;DHT22;14192;0.00000000;0.00000000;2023-04-01T16:12:19;9.80;99.90